createdAt,value
2018-11-29T00:00:17.047Z,-4.43
2018-11-29T00:02:45.522Z,-4.29
2018-11-29T00:05:14.019Z,-4.42
2018-11-29T00:07:42.688Z,-4.35
2018-11-29T00:10:11.471Z,-4.37
2018-11-29T00:12:40.166Z,-4.39
2018-11-29T00:15:13.211Z,-4.39
2018-11-29T00:17:41.773Z,-4.36
2018-11-29T00:20:12.083Z,-4.41
2018-11-29T00:22:40.606Z,-4.38
2018-11-29T00:25:10.209Z,-4.41
2018-11-29T00:27:38.737Z,-4.45
2018-11-29T00:30:09.765Z,-4.48
2018-11-29T00:32:38.243Z,-4.43
2018-11-29T00:35:08.145Z,-4.43
2018-11-29T00:37:36.960Z,-4.40
2018-11-29T00:40:07.698Z,-4.42
2018-11-29T00:42:36.449Z,-4.46
2018-11-29T00:45:06.457Z,-4.56
2018-11-29T00:47:35.158Z,-4.53
2018-11-29T00:50:03.975Z,-4.49
2018-11-29T00:52:32.476Z,-4.54
2018-11-29T00:55:01.091Z,-4.46
2018-11-29T00:57:29.784Z,-4.50
2018-11-29T00:59:58.501Z,-4.55
2018-11-29T01:02:26.893Z,-4.49
2018-11-29T01:04:55.564Z,-4.60
2018-11-29T01:07:24.145Z,-4.62
2018-11-29T01:09:52.654Z,-4.57
2018-11-29T01:12:21.319Z,-4.54
2018-11-29T01:14:49.916Z,-4.63
2018-11-29T01:17:18.433Z,-4.70
2018-11-29T01:19:47.087Z,-4.72
2018-11-29T01:22:15.655Z,-4.69
2018-11-29T01:24:44.250Z,-4.65
2018-11-29T01:27:19.494Z,-4.71
2018-11-29T01:29:47.934Z,-4.67
2018-11-29T01:32:16.119Z,-4.70
2018-11-29T01:34:44.594Z,-4.71
2018-11-29T01:37:13.033Z,-4.63
2018-11-29T01:39:41.694Z,-4.63
2018-11-29T01:42:09.952Z,-4.63
2018-11-29T01:44:38.431Z,-4.71
2018-11-29T01:47:06.685Z,-4.68
2018-11-29T01:49:35.278Z,-4.61
2018-11-29T01:52:03.684Z,-4.61
2018-11-29T01:54:32.102Z,-4.68
2018-11-29T01:57:00.607Z,-4.74
2018-11-29T01:59:28.940Z,-4.69
2018-11-29T02:01:57.401Z,-4.70
2018-11-29T02:04:25.879Z,-4.71
2018-11-29T02:06:54.417Z,-4.71
2018-11-29T02:09:23.056Z,-4.68
2018-11-29T02:11:51.374Z,-4.73
2018-11-29T02:14:19.894Z,-4.61
2018-11-29T02:16:48.392Z,-4.73
2018-11-29T02:19:16.810Z,-4.76
2018-11-29T02:21:45.507Z,-4.78
2018-11-29T02:24:14.040Z,-4.82
2018-11-29T02:26:42.364Z,-4.82
2018-11-29T02:29:10.883Z,-4.84
2018-11-29T02:31:39.351Z,-4.85
2018-11-29T02:34:07.915Z,-4.82
2018-11-29T02:36:36.248Z,-4.78
2018-11-29T02:39:06.171Z,-4.80
2018-11-29T02:41:34.544Z,-4.88
2018-11-29T02:44:03.188Z,-4.79
2018-11-29T02:46:31.305Z,-4.75
2018-11-29T02:48:59.670Z,-4.87
2018-11-29T02:51:27.890Z,-4.80
2018-11-29T02:53:56.502Z,-4.82
2018-11-29T02:56:24.915Z,-4.87
2018-11-29T02:58:53.436Z,-4.93
2018-11-29T03:01:23.034Z,-5.00
2018-11-29T03:03:51.609Z,-5.00
2018-11-29T03:06:20.258Z,-5.02
2018-11-29T03:08:48.687Z,-4.98
2018-11-29T03:11:17.374Z,-5.00
2018-11-29T03:13:45.958Z,-5.02
2018-11-29T03:16:14.443Z,-5.11
2018-11-29T03:18:42.897Z,-5.06
2018-11-29T03:21:11.206Z,-4.99
2018-11-29T03:23:39.605Z,-4.97
2018-11-29T03:26:08.026Z,-4.98
2018-11-29T03:28:36.355Z,-5.02
2018-11-29T03:31:04.894Z,-5.02
2018-11-29T03:33:33.357Z,-5.04
2018-11-29T03:36:01.563Z,-5.02
2018-11-29T03:38:30.117Z,-5.06
2018-11-29T03:40:58.743Z,-5.10
2018-11-29T03:43:27.048Z,-5.15
2018-11-29T03:45:55.469Z,-5.08
2018-11-29T03:48:23.666Z,-5.08
2018-11-29T03:50:51.951Z,-5.03
2018-11-29T03:53:20.469Z,-5.00
2018-11-29T03:55:48.864Z,-5.06
2018-11-29T03:58:17.154Z,-5.05
2018-11-29T04:00:45.805Z,-5.13
2018-11-29T04:03:14.013Z,-5.06
2018-11-29T04:05:42.505Z,-4.98
2018-11-29T04:08:10.900Z,-4.96
2018-11-29T04:10:39.372Z,-4.87
2018-11-29T04:13:07.941Z,-4.88
2018-11-29T04:15:36.351Z,-4.95
2018-11-29T04:18:05.344Z,-4.85
2018-11-29T04:20:33.851Z,-4.95
2018-11-29T04:23:02.289Z,-4.87
2018-11-29T04:25:30.826Z,-4.87
2018-11-29T04:27:59.413Z,-4.86
2018-11-29T04:30:27.691Z,-4.84
2018-11-29T04:32:56.386Z,-4.78
2018-11-29T04:35:24.880Z,-4.80
2018-11-29T04:37:53.363Z,-4.83
2018-11-29T04:40:21.969Z,-4.78
2018-11-29T04:42:50.502Z,-4.80
2018-11-29T04:45:18.904Z,-4.88
2018-11-29T04:47:47.511Z,-4.81
2018-11-29T04:50:16.644Z,-4.73
2018-11-29T04:52:44.849Z,-4.71
2018-11-29T04:55:13.284Z,-4.76
2018-11-29T04:57:41.985Z,-4.73
2018-11-29T05:00:16.953Z,-4.73
2018-11-29T05:02:45.608Z,-4.72
2018-11-29T05:05:14.175Z,-4.69
2018-11-29T05:07:42.522Z,-4.71
2018-11-29T05:10:12.023Z,-4.74
2018-11-29T05:12:40.491Z,-4.67
2018-11-29T05:15:10.124Z,-4.73
2018-11-29T05:17:38.543Z,-4.80
2018-11-29T05:20:06.931Z,-4.82
2018-11-29T05:22:35.251Z,-4.77
2018-11-29T05:25:03.602Z,-4.70
2018-11-29T05:27:32.119Z,-4.63
2018-11-29T05:30:00.646Z,-4.73
2018-11-29T05:32:28.961Z,-4.75
2018-11-29T05:34:57.366Z,-4.67
2018-11-29T05:37:26.016Z,-4.77
2018-11-29T05:39:54.367Z,-4.65
2018-11-29T05:42:22.788Z,-4.68
2018-11-29T05:44:51.086Z,-4.62
2018-11-29T05:47:19.640Z,-4.61
2018-11-29T05:49:47.922Z,-4.55
2018-11-29T05:52:16.544Z,-4.53
2018-11-29T05:54:45.188Z,-4.47
2018-11-29T05:57:13.697Z,-4.42
2018-11-29T05:59:42.190Z,-4.42
2018-11-29T06:02:10.603Z,-4.39
2018-11-29T06:04:39.174Z,-4.37
2018-11-29T06:07:07.899Z,-4.39
2018-11-29T06:09:36.402Z,-4.47
2018-11-29T06:12:05.299Z,-4.49
2018-11-29T06:14:33.871Z,-4.40
2018-11-29T06:17:02.233Z,-4.28
2018-11-29T06:19:31.087Z,-4.19
2018-11-29T06:21:59.645Z,-4.08
2018-11-29T06:24:28.449Z,-4.18
2018-11-29T06:26:56.968Z,-4.04
2018-11-29T06:29:25.554Z,-3.81
2018-11-29T06:31:54.081Z,-3.81
2018-11-29T06:34:22.837Z,-3.71
2018-11-29T06:36:51.848Z,-3.51
2018-11-29T06:39:20.604Z,-3.44
2018-11-29T06:41:49.123Z,-3.58
2018-11-29T06:44:17.733Z,-3.46
2018-11-29T06:46:46.456Z,-3.47
2018-11-29T06:49:15.221Z,-3.57
2018-11-29T06:51:44.045Z,-3.48
2018-11-29T06:54:12.717Z,-3.51
2018-11-29T06:56:41.330Z,-3.55
2018-11-29T06:59:10.109Z,-3.60
2018-11-29T07:01:38.872Z,-3.37
2018-11-29T07:04:07.186Z,-3.12
2018-11-29T07:06:35.868Z,-3.18
2018-11-29T07:09:05.649Z,-2.80
2018-11-29T07:11:34.177Z,-2.65
2018-11-29T07:14:02.900Z,-2.64
2018-11-29T07:16:31.810Z,-2.58
2018-11-29T07:19:00.120Z,-2.40
2018-11-29T07:21:39.421Z,-2.36
2018-11-29T07:24:07.836Z,-2.19
2018-11-29T07:26:36.353Z,-2.05
2018-11-29T07:29:04.850Z,-2.16
2018-11-29T07:31:33.169Z,-2.10
2018-11-29T07:34:01.804Z,-2.01
2018-11-29T07:36:30.388Z,-2.06
2018-11-29T07:38:58.874Z,-1.87
2018-11-29T07:41:27.845Z,-2.33
2018-11-29T07:43:56.475Z,-2.40
2018-11-29T07:46:25.354Z,-2.29
2018-11-29T07:48:53.847Z,-2.52
2018-11-29T07:51:22.407Z,-2.33
2018-11-29T07:53:51.220Z,-2.18
2018-11-29T07:56:19.713Z,-2.42
2018-11-29T07:58:51.784Z,-2.36
2018-11-29T08:01:17.176Z,-2.46
2018-11-29T08:03:45.973Z,-2.53
2018-11-29T08:06:14.766Z,-2.43
2018-11-29T08:08:43.297Z,-2.90
2018-11-29T08:11:11.941Z,-2.93
2018-11-29T08:13:40.843Z,-2.83
2018-11-29T08:16:09.686Z,-3.07
2018-11-29T08:18:38.350Z,-3.17
2018-11-29T08:21:07.080Z,-3.37
2018-11-29T08:23:35.663Z,-3.19
2018-11-29T08:26:04.297Z,-3.12
2018-11-29T08:28:33.020Z,-3.32
2018-11-29T08:31:01.908Z,-3.17
2018-11-29T08:33:30.402Z,-2.63
2018-11-29T08:35:59.020Z,-2.42
2018-11-29T08:38:27.974Z,-2.77
2018-11-29T08:40:56.691Z,-2.84
2018-11-29T08:43:25.373Z,-2.63
2018-11-29T08:45:54.014Z,-2.48
2018-11-29T08:48:22.720Z,-2.59
2018-11-29T08:50:51.397Z,-2.19
2018-11-29T08:53:19.951Z,-1.77
2018-11-29T08:55:48.625Z,-1.84
2018-11-29T08:58:17.238Z,-2.00
2018-11-29T09:00:45.626Z,-2.17
2018-11-29T09:03:14.364Z,-1.90
2018-11-29T09:05:42.996Z,-1.62
2018-11-29T09:08:11.881Z,-1.82
2018-11-29T09:10:40.578Z,-2.57
2018-11-29T09:13:09.122Z,-2.38
2018-11-29T09:15:37.803Z,-2.29
2018-11-29T09:18:06.506Z,-2.59
2018-11-29T09:20:34.863Z,-2.44
2018-11-29T09:23:03.379Z,-2.59
2018-11-29T09:25:31.947Z,-2.32
2018-11-29T09:28:00.435Z,-2.44
2018-11-29T09:30:29.375Z,-2.42
2018-11-29T09:32:57.951Z,-2.25
2018-11-29T09:35:26.617Z,-2.13
2018-11-29T09:37:55.246Z,-2.06
2018-11-29T09:40:23.770Z,-1.99
2018-11-29T09:42:52.583Z,-1.89
2018-11-29T09:45:22.652Z,-2.04
2018-11-29T09:47:55.635Z,-1.95
2018-11-29T09:50:24.960Z,-2.31
2018-11-29T09:52:53.628Z,-2.00
2018-11-29T09:55:22.355Z,-2.20
2018-11-29T09:57:51.578Z,-1.89
2018-11-29T10:00:27.692Z,-1.78
2018-11-29T10:03:09.224Z,-1.60
2018-11-29T10:05:37.542Z,-1.46
2018-11-29T10:08:11.683Z,-1.80
2018-11-29T10:10:35.343Z,-1.57
2018-11-29T10:13:03.939Z,-1.65
2018-11-29T10:15:32.501Z,-1.82
2018-11-29T10:18:00.936Z,-1.71
2018-11-29T10:20:29.570Z,-1.69
2018-11-29T10:22:58.274Z,-1.90
2018-11-29T10:25:26.724Z,-2.20
2018-11-29T10:27:58.818Z,-2.28
2018-11-29T10:30:29.403Z,-2.37
2018-11-29T10:32:58.010Z,-2.03
2018-11-29T10:35:26.610Z,-1.77
2018-11-29T10:37:55.154Z,-1.74
2018-11-29T10:40:23.749Z,-1.88
2018-11-29T10:42:52.496Z,-1.83
2018-11-29T10:45:21.487Z,-2.05
2018-11-29T10:47:52.397Z,-1.79
2018-11-29T10:50:20.047Z,-1.72
2018-11-29T10:52:48.736Z,-1.36
2018-11-29T10:55:18.001Z,-1.12
2018-11-29T10:57:46.744Z,-1.19
2018-11-29T11:00:25.935Z,-1.09
2018-11-29T11:03:01.597Z,-1.24
2018-11-29T11:05:30.179Z,-1.09
2018-11-29T11:07:58.760Z,-0.52
2018-11-29T11:10:27.706Z,-0.28
2018-11-29T11:12:57.492Z,-0.73
2018-11-29T11:15:26.194Z,-0.98
2018-11-29T11:17:54.924Z,-0.97
2018-11-29T11:20:23.735Z,-0.80
2018-11-29T11:22:52.857Z,-0.99
2018-11-29T11:28:18.957Z,-0.76
2018-11-29T11:30:47.773Z,-0.80
2018-11-29T11:33:16.361Z,-0.61
2018-11-29T11:35:44.879Z,-0.51
2018-11-29T11:38:13.569Z,-0.36
2018-11-29T11:40:42.498Z,-0.64
2018-11-29T11:43:11.240Z,-0.77
2018-11-29T11:45:39.900Z,-0.94
2018-11-29T11:48:08.587Z,-0.91
2018-11-29T11:50:37.709Z,-0.96
2018-11-29T11:53:07.640Z,-0.87
2018-11-29T11:55:36.853Z,-0.63
2018-11-29T11:58:06.048Z,-0.71
2018-11-29T12:00:34.926Z,-1.35
2018-11-29T12:03:06.696Z,-1.08
2018-11-29T12:05:35.665Z,-1.44
2018-11-29T12:08:04.468Z,-1.31
2018-11-29T12:10:33.455Z,-1.45
2018-11-29T12:13:02.095Z,-1.43
2018-11-29T12:15:30.991Z,-1.76
2018-11-29T12:17:59.763Z,-1.71
2018-11-29T12:20:28.334Z,-1.39
2018-11-29T12:22:56.954Z,-1.03
2018-11-29T12:25:25.619Z,-0.81
2018-11-29T12:27:54.067Z,-0.52
2018-11-29T12:30:24.727Z,-0.29
2018-11-29T12:32:54.347Z,-0.75
2018-11-29T12:35:22.885Z,-0.61
2018-11-29T12:37:53.154Z,-0.64
2018-11-29T12:40:20.398Z,-0.60
2018-11-29T12:42:49.200Z,-0.97
2018-11-29T12:45:22.610Z,-1.48
2018-11-29T12:47:51.293Z,-1.21
2018-11-29T12:50:21.070Z,-0.72
2018-11-29T12:52:49.786Z,-0.86
2018-11-29T12:55:19.080Z,-0.97
2018-11-29T12:57:47.798Z,-1.01
2018-11-29T13:00:18.914Z,-1.58
2018-11-29T13:02:53.244Z,-1.60
2018-11-29T13:05:22.080Z,-1.50
2018-11-29T13:07:51.105Z,-1.72
2018-11-29T13:10:21.384Z,-1.99
2018-11-29T13:12:50.067Z,-2.00
2018-11-29T13:15:23.278Z,-2.01
2018-11-29T13:17:54.243Z,-2.04
2018-11-29T13:20:24.421Z,-2.08
2018-11-29T13:22:53.505Z,-2.35
2018-11-29T13:25:23.522Z,-2.40
2018-11-29T13:27:52.486Z,-2.41
2018-11-29T13:30:22.034Z,-2.61
2018-11-29T13:32:51.528Z,-2.67
2018-11-29T13:35:22.063Z,-2.64
2018-11-29T13:37:58.997Z,-2.65
2018-11-29T13:40:28.087Z,-2.60
2018-11-29T13:42:56.755Z,-2.81
2018-11-29T13:45:25.749Z,-2.77
2018-11-29T13:47:54.353Z,-2.75
2018-11-29T13:50:22.757Z,-2.78
2018-11-29T13:52:51.590Z,-2.76
2018-11-29T13:55:20.494Z,-2.66
2018-11-29T13:57:50.699Z,-2.89
2018-11-29T14:00:20.798Z,-3.14
2018-11-29T14:02:54.233Z,-3.17
2018-11-29T14:05:23.322Z,-3.23
2018-11-29T14:07:52.175Z,-3.35
2018-11-29T14:10:21.990Z,-3.54
2018-11-29T14:12:51.963Z,-3.62
2018-11-29T14:15:22.473Z,-3.65
2018-11-29T14:17:51.714Z,-3.78
2018-11-29T14:20:20.670Z,-3.94
2018-11-29T14:22:49.816Z,-4.35
2018-11-29T14:25:18.617Z,-4.42
2018-11-29T14:27:49.510Z,-4.42
2018-11-29T14:30:19.434Z,-4.40
2018-11-29T14:32:49.156Z,-4.42
2018-11-29T14:35:17.753Z,-4.44
2018-11-29T14:37:46.688Z,-4.57
2018-11-29T14:40:18.402Z,-4.57
2018-11-29T14:42:47.153Z,-4.82
2018-11-29T14:45:16.602Z,-4.87
2018-11-29T14:47:45.700Z,-4.99
2018-11-29T14:50:19.412Z,-4.99
2018-11-29T14:52:48.174Z,-5.12
2018-11-29T14:55:16.734Z,-5.13
2018-11-29T14:57:45.599Z,-5.24
2018-11-29T15:00:14.482Z,-5.24
2018-11-29T15:02:43.172Z,-5.33
2018-11-29T15:05:23.456Z,-5.37
2018-11-29T15:07:52.319Z,-5.45
2018-11-29T15:10:21.331Z,-5.58
2018-11-29T15:12:50.234Z,-5.67
2018-11-29T15:15:18.876Z,-5.60
2018-11-29T15:17:48.120Z,-5.69
2018-11-29T15:20:21.960Z,-5.67
2018-11-29T15:22:50.508Z,-5.78
2018-11-29T15:25:19.136Z,-5.74
2018-11-29T15:27:47.993Z,-5.89
2018-11-29T15:30:18.947Z,-5.86
2018-11-29T15:32:47.998Z,-5.78
2018-11-29T15:35:16.705Z,-5.73
2018-11-29T15:37:45.737Z,-5.76
2018-11-29T15:40:15.560Z,-5.77
2018-11-29T15:42:44.442Z,-5.82
2018-11-29T15:45:28.749Z,-5.81
2018-11-29T15:47:57.447Z,-5.82
2018-11-29T15:50:26.317Z,-5.83
2018-11-29T15:52:55.237Z,-5.74
2018-11-29T15:55:24.065Z,-5.70
2018-11-29T15:57:53.169Z,-5.67
2018-11-29T16:00:23.740Z,-5.65
2018-11-29T16:02:52.726Z,-5.65
2018-11-29T16:05:21.337Z,-5.75
2018-11-29T16:07:49.957Z,-5.81
2018-11-29T16:10:19.577Z,-5.74
2018-11-29T16:12:48.119Z,-5.71
2018-11-29T16:15:17.437Z,-5.71
2018-11-29T16:17:46.526Z,-5.70
2018-11-29T16:20:32.351Z,-5.69
2018-11-29T16:23:01.138Z,-5.61
2018-11-29T16:25:29.882Z,-5.72
2018-11-29T16:27:58.471Z,-5.71
2018-11-29T16:30:43.493Z,-5.72
2018-11-29T16:33:13.789Z,-5.70
2018-11-29T16:35:42.406Z,-5.64
2018-11-29T16:38:10.959Z,-5.64
2018-11-29T16:40:39.674Z,-5.54
2018-11-29T16:43:08.586Z,-5.61
2018-11-29T16:45:37.504Z,-5.66
2018-11-29T16:48:06.708Z,-5.64
2018-11-29T16:50:35.789Z,-5.64
2018-11-29T16:53:04.818Z,-5.67
2018-11-29T16:55:33.717Z,-5.54
2018-11-29T16:58:03.891Z,-5.59
2018-11-29T17:00:32.485Z,-5.60
2018-11-29T17:03:01.386Z,-5.61
2018-11-29T17:05:30.128Z,-5.61
2018-11-29T17:07:59.184Z,-5.65
2018-11-29T17:10:27.865Z,-5.63
2018-11-29T17:12:57.713Z,-5.64
2018-11-29T17:15:26.336Z,-5.69
2018-11-29T17:17:54.928Z,-5.79
2018-11-29T17:20:23.802Z,-5.70
2018-11-29T17:22:52.915Z,-5.69
2018-11-29T17:25:21.463Z,-5.69
2018-11-29T17:27:49.962Z,-5.69
2018-11-29T17:30:20.248Z,-5.73
2018-11-29T17:32:50.350Z,-5.59
2018-11-29T17:35:18.929Z,-5.57
2018-11-29T17:37:47.892Z,-5.64
2018-11-29T17:40:18.715Z,-5.65
2018-11-29T17:42:47.475Z,-5.64
2018-11-29T17:45:17.041Z,-5.60
2018-11-29T17:47:45.668Z,-5.69
2018-11-29T17:50:18.801Z,-5.80
2018-11-29T17:52:47.793Z,-5.77
2018-11-29T17:55:16.549Z,-5.74
2018-11-29T17:57:45.426Z,-5.82
2018-11-29T18:00:20.151Z,-6.03
2018-11-29T18:02:48.917Z,-5.98
2018-11-29T18:05:17.475Z,-5.99
2018-11-29T18:07:46.235Z,-6.04
2018-11-29T18:10:18.815Z,-6.12
2018-11-29T18:12:48.959Z,-6.12
2018-11-29T18:15:21.743Z,-6.15
2018-11-29T18:17:51.144Z,-6.16
2018-11-29T18:20:19.784Z,-6.21
2018-11-29T18:22:49.275Z,-6.15
2018-11-29T18:25:17.984Z,-6.20
2018-11-29T18:27:48.873Z,-6.24
2018-11-29T18:30:18.781Z,-6.31
2018-11-29T18:32:47.475Z,-6.24
2018-11-29T18:35:16.349Z,-6.23
2018-11-29T18:37:45.889Z,-6.30
2018-11-29T18:40:17.090Z,-6.26
2018-11-29T18:42:46.732Z,-6.25
2018-11-29T18:45:16.258Z,-6.26
2018-11-29T18:47:45.595Z,-6.36
2018-11-29T18:50:17.424Z,-6.30
2018-11-29T18:52:46.193Z,-6.32
2018-11-29T18:55:14.967Z,-6.34
2018-11-29T18:57:43.888Z,-6.37
2018-11-29T19:00:15.466Z,-6.33
2018-11-29T19:02:44.467Z,-6.45
2018-11-29T19:05:13.307Z,-6.48
2018-11-29T19:07:42.456Z,-6.44
2018-11-29T19:10:15.900Z,-6.47
2018-11-29T19:12:49.174Z,-6.46
2018-11-29T19:15:18.197Z,-6.51
2018-11-29T19:17:47.252Z,-6.54
2018-11-29T19:20:16.025Z,-6.58
2018-11-29T19:22:44.834Z,-6.62
2018-11-29T19:25:16.647Z,-6.69
2018-11-29T19:27:45.534Z,-6.65
2018-11-29T19:30:17.800Z,-6.68
2018-11-29T19:32:47.710Z,-6.65
2018-11-29T19:35:17.051Z,-6.65
2018-11-29T19:37:45.725Z,-6.72
2018-11-29T19:40:15.293Z,-6.80
2018-11-29T19:42:44.020Z,-6.85
2018-11-29T19:45:13.451Z,-6.84
2018-11-29T19:47:42.980Z,-6.73
2018-11-29T19:50:14.940Z,-6.81
2018-11-29T19:52:44.683Z,-6.88
2018-11-29T19:55:15.876Z,-6.95
2018-11-29T19:57:44.881Z,-7.04
2018-11-29T20:00:13.931Z,-7.01
2018-11-29T20:02:43.530Z,-6.99
2018-11-29T20:05:12.728Z,-6.90
2018-11-29T20:07:41.897Z,-6.92
2018-11-29T20:10:13.758Z,-7.02
2018-11-29T20:12:42.742Z,-7.10
2018-11-29T20:15:13.150Z,-7.19
2018-11-29T20:17:41.806Z,-7.10
2018-11-29T20:20:11.404Z,-7.05
2018-11-29T20:22:40.588Z,-7.09
2018-11-29T20:25:14.288Z,-7.21
2018-11-29T20:27:43.025Z,-7.22
2018-11-29T20:30:20.147Z,-7.24
2018-11-29T20:32:49.730Z,-7.24
2018-11-29T20:35:18.611Z,-7.23
2018-11-29T20:37:47.650Z,-7.26
2018-11-29T20:40:20.218Z,-7.23
2018-11-29T20:42:50.411Z,-7.27
2018-11-29T20:45:22.286Z,-7.23
2018-11-29T20:47:51.053Z,-7.25
2018-11-29T20:50:20.577Z,-7.26
2018-11-29T20:52:50.193Z,-7.28
2018-11-29T20:55:20.641Z,-7.35
2018-11-29T20:57:49.353Z,-7.39
2018-11-29T21:00:18.584Z,-7.50
2018-11-29T21:02:47.686Z,-7.43
2018-11-29T21:05:18.095Z,-7.44
2018-11-29T21:07:51.166Z,-7.52
2018-11-29T21:10:21.879Z,-7.54
2018-11-29T21:12:50.780Z,-7.50
2018-11-29T21:15:19.382Z,-7.59
2018-11-29T21:17:48.025Z,-7.67
2018-11-29T21:20:17.413Z,-7.69
2018-11-29T21:22:46.946Z,-7.63
2018-11-29T21:25:19.860Z,-7.63
2018-11-29T21:27:48.808Z,-7.62
2018-11-29T21:30:17.847Z,-7.70
2018-11-29T21:32:46.890Z,-7.65
2018-11-29T21:35:17.725Z,-7.68
2018-11-29T21:37:46.418Z,-7.73
2018-11-29T21:40:21.702Z,-7.79
2018-11-29T21:42:51.051Z,-7.77
2018-11-29T21:45:19.927Z,-7.71
2018-11-29T21:47:48.573Z,-7.82
2018-11-29T21:50:17.353Z,-7.72
2018-11-29T21:52:46.104Z,-7.75
2018-11-29T21:55:14.739Z,-7.97
2018-11-29T21:57:43.760Z,-8.07
2018-11-29T22:00:19.653Z,-8.03
2018-11-29T22:02:49.381Z,-7.94
2018-11-29T22:05:18.125Z,-7.98
2018-11-29T22:07:46.695Z,-7.93
2018-11-29T22:10:15.402Z,-7.98
2018-11-29T22:12:44.025Z,-8.11
2018-11-29T22:15:12.881Z,-8.07
2018-11-29T22:18:17.478Z,-8.12
2018-11-29T22:20:46.146Z,-8.21
2018-11-29T22:23:14.813Z,-8.17
2018-11-29T22:25:43.595Z,-8.28
2018-11-29T22:28:12.350Z,-8.29
2018-11-29T22:30:41.455Z,-8.34
2018-11-29T22:33:09.699Z,-8.36
2018-11-29T22:35:39.169Z,-8.32
2018-11-29T22:38:08.067Z,-8.30
2018-11-29T22:40:36.854Z,-8.30
2018-11-29T22:43:05.780Z,-8.29
2018-11-29T22:45:34.516Z,-8.42
2018-11-29T22:48:03.376Z,-8.44
2018-11-29T22:50:32.008Z,-8.49
2018-11-29T22:53:00.646Z,-8.53
2018-11-29T22:55:29.338Z,-8.56
2018-11-29T22:57:58.070Z,-8.50
2018-11-29T23:00:31.718Z,-8.59
2018-11-29T23:03:00.326Z,-8.61
2018-11-29T23:05:28.935Z,-8.57
2018-11-29T23:07:57.880Z,-8.47
2018-11-29T23:10:26.691Z,-8.56
2018-11-29T23:12:55.301Z,-8.62
2018-11-29T23:15:24.036Z,-8.69
2018-11-29T23:17:52.616Z,-8.70
2018-11-29T23:20:21.423Z,-8.71
2018-11-29T23:22:50.160Z,-8.54
2018-11-29T23:25:18.870Z,-8.62
2018-11-29T23:27:47.779Z,-8.67
2018-11-29T23:30:17.123Z,-8.67
2018-11-29T23:32:45.888Z,-8.76
2018-11-29T23:35:15.228Z,-8.79
2018-11-29T23:37:44.088Z,-8.70
2018-11-29T23:40:14.499Z,-8.82
2018-11-29T23:42:43.049Z,-8.74
2018-11-29T23:45:12.264Z,-8.73
2018-11-29T23:47:40.927Z,-8.88
2018-11-29T23:50:13.246Z,-8.74
2018-11-29T23:52:41.987Z,-8.70
2018-11-29T23:55:11.565Z,-8.77
2018-11-29T23:57:40.125Z,-8.74
